Latest Coastal Weather Observations for Albany Airport

IDW60701

Issued at 5:25 pm WST Thursday 31 July 2014 (issued every 10 minutes, with the page automatically refreshed every 10 minutes)

About coastal observations | Map of coastal stations | Coastal observations for WA | Marine services | Other Formats
Station Details ID: 009999 Name: ALBANY AIRPORT Lat: -34.94 Lon: 117.82 Height: 68.4 m
Data from the previous 72 hours. | See also: Recent months at Albany Airport
Date/Time
WST
Temp

°C
Wind Pressure Rain
since 9am
mm
Weather Cloud Vis
km
Sea
Height
m
Swell
Dir
 
Speed
knots
Gust
knots
hPa Trend Height
m
Period
s
Dir
31/05:00pm 10.2 W 4 5 1027.8 - 0.0 - Partly cloudy 10 - - - -
31/04:30pm 10.4 WSW 6 9 1027.7 - 0.0 - Cloudy 10 - - - -
31/04:00pm 10.9 SW 11 19 1027.7 - 0.0 - Cloudy 10 - - - -
31/03:30pm 11.5 SW 10 13 1027.6 - 0.0 - Cloudy 10 - - - -
31/03:00pm 11.4 SW 10 15 1027.7 R 0.0 Fine Cloudy 25 - - - -
31/02:30pm 12.1 WSW 9 12 1026.9 - 0.0 - Mostly cloudy 10 - - - -
31/02:00pm 11.4 WSW 10 16 1026.8 - 0.0 - Mostly cloudy 10 - - - -
31/01:30pm 11.6 WSW 11 16 1026.8 - 0.0 - Mostly cloudy 10 - - - -
31/01:00pm 12.6 WSW 10 13 1026.9 - 0.0 - Mostly cloudy 10 - - - -
31/12:30pm 11.3 SW 9 13 1027.1 - 0.0 - Mostly cloudy 10 - - - -
31/12:00pm 11.7 SSW 9 15 1027.4 R 0.0 Fine Mostly cloudy 20 - - - -
31/11:30am 11.5 SW 10 13 1027.4 - 0.0 - Mostly cloudy 10 - - - -
31/11:00am 11.1 SW 11 16 1027.4 - 0.0 - Mostly cloudy 10 - - - -
31/10:30am 11.2 SW 11 14 1027.0 - 0.0 - Mostly cloudy 10 - - - -
31/10:00am 11.6 WSW 11 14 1026.7 - 0.0 - Mostly cloudy 10 - - - -
31/09:30am 10.8 SSW 9 15 1026.3 - 0.0 - Mostly cloudy 10 - - - -
31/09:00am 10.3 SSW 8 11 1026.1 R 1.0 Fine Mostly cloudy 20 - - - -
31/08:30am 9.8 SW 9 14 1025.7 - 1.0 - Mostly cloudy 10 - - - -
31/08:00am 9.4 SSW 11 18 1025.5 - 1.0 - Mostly cloudy 10 - - - -
31/07:30am 9.6 S 11 17 1025.0 - 1.0 - Mostly cloudy 10 - - - -
31/07:00am 9.3 SSW 11 15 1024.6 - 1.0 - Mostly cloudy 10 - - - -
31/06:30am 9.6 SSW 12 18 1024.0 - 1.0 - Partly cloudy 10 - - - -
31/06:00am 9.1 SSW 11 15 1023.9 R 1.0 Fine Partly cloudy 20 - - - -
31/05:30am 9.7 SSW 13 21 1023.1 - 1.0 - Cloudy 10 - - - -
31/05:00am 9.7 SSW 14 21 1022.8 - 1.0 - Cloudy 10 - - - -
31/04:30am 10.1 SSW 15 25 1022.3 - 1.0 - Partly cloudy 10 - - - -
31/04:29am 10.0 SSW 15 25 1022.3 - 1.0 - Partly cloudy 10 - - - -
31/04:00am 9.8 SW 14 20 1022.1 - 1.0 - Partly cloudy 10 - - - -
31/03:35am 9.3 SW 12 17 1021.9 - 1.0 - Partly cloudy 10 - - - -
31/03:30am 9.2 SW 12 15 1021.9 - 1.0 - Partly cloudy 9 - - - -
31/03:17am 9.5 SW 17 22 1021.9 - 1.0 - Partly cloudy 6 - - - -
31/03:00am 10.6 SW 16 24 1021.7 - 0.8 - Cloudy 10 - - - -
31/02:48am 10.5 SW 16 27 1021.3 - 0.8 - Partly cloudy 10 - - - -
31/02:30am 11.1 SW 17 25 1021.1 - 0.8 - Partly cloudy 10 - - - -
31/02:24am 11.3 SW 15 25 1021.2 - 0.8 - Partly cloudy 10 - - - -
31/02:00am 11.0 WSW 14 20 1020.9 - 0.8 - Partly cloudy 10 - - - -
31/01:30am 11.1 WSW 17 26 1020.6 - 0.8 - Partly cloudy 10 - - - -
31/01:16am 11.5 WSW 17 27 1020.6 - 0.8 - Partly cloudy 10 - - - -
31/01:00am 11.4 WSW 14 21 1020.3 - 0.8 - Partly cloudy 10 - - - -
31/12:30am 11.4 WSW 16 23 1020.2 - 0.8 - Partly cloudy 10 - - - -
31/12:01am 11.8 SW 19 31 1020.0 - 0.8 - Partly cloudy 10 - - - -
31/12:00am 11.8 SW 19 28 1020.1 - 0.8 - Cloudy 10 - - - -
 
Date/Time
WST
Temp

°C
Wind Pressure Rain
since 9am
mm
Weather Cloud Vis
km
Sea
Height
m
Swell
Dir
 
Speed
knots
Gust
knots
hPa Trend Height
m
Period
s
Dir
30/11:30pm 12.2 WSW 19 30 1019.7 - 0.8 - Partly cloudy 10 - - - -
30/11:03pm 12.0 WSW 16 26 1019.4 - 0.8 - Partly cloudy 10 - - - -
30/11:00pm 12.1 WSW 17 26 1019.3 - 0.8 - Cloudy 10 - - - -
30/10:30pm 12.1 WSW 19 29 1019.1 - 0.8 - Cloudy 10 - - - -
30/10:14pm 12.1 WSW 19 29 1019.0 - 0.8 - Partly cloudy 10 - - - -
30/10:00pm 12.2 WSW 17 26 1018.9 - 0.8 - Partly cloudy 10 - - - -
30/09:40pm 12.5 WSW 19 31 1018.6 - 0.8 - Cloudy 10 - - - -
30/09:30pm 12.5 WSW 19 27 1018.5 - 0.8 - Partly cloudy 10 - - - -
30/09:10pm 12.3 WSW 18 28 1018.2 - 0.8 - Partly cloudy 10 - - - -
30/09:00pm 12.4 WSW 19 28 1018.2 - 0.8 - Cloudy 10 - - - -
30/08:30pm 12.7 WSW 16 27 1017.6 - 0.8 - Partly cloudy 10 - - - -
30/08:13pm 12.4 W 13 19 1017.4 - 0.8 - Partly cloudy 10 - - - -
30/08:00pm 12.3 W 12 17 1017.3 - 0.6 - Partly cloudy 5 - - - -
30/07:45pm 12.6 W 15 22 1017.1 - 0.2 - Partly cloudy 6 - - - -
30/07:30pm 13.1 W 15 21 1017.0 - 0.2 - Partly cloudy 10 - - - -
30/07:00pm 13.0 W 13 18 1016.7 - 0.2 - Partly cloudy 10 - - - -
30/06:30pm 13.6 WNW 15 24 1016.5 - 0.2 - Partly cloudy 10 - - - -
30/06:00pm 13.9 W 14 22 1016.8 - 0.2 - Cloudy 10 - - - -
30/05:30pm 14.2 W 14 21 1016.5 - 0.2 - Partly cloudy 10 - - - -
30/05:00pm 14.4 W 17 22 1016.4 - 0.2 - Partly cloudy 10 - - - -
30/04:30pm 14.7 W 17 23 1016.1 - 0.2 - Partly cloudy 10 - - - -
30/04:11pm 15.0 W 17 27 1015.9 - 0.2 - Partly cloudy 10 - - - -
30/04:00pm 14.9 W 15 22 1015.8 - 0.2 - Partly cloudy 10 - - - -
30/03:54pm 15.0 W 16 26 1015.8 - 0.2 - Partly cloudy 10 - - - -
30/03:30pm 15.0 W 18 27 1015.7 - 0.2 - Partly cloudy 10 - - - -
30/03:15pm 14.7 W 19 29 1015.5 - 0.2 - Partly cloudy 10 - - - -
30/03:04pm 14.5 W 18 27 1015.6 - 0.2 - Partly cloudy 10 - - - -
30/03:02pm 14.4 W 17 27 1015.6 - 0.2 - Partly cloudy 10 - - - -
30/03:00pm 14.2 W 18 27 1015.8 - 0.2 - Cloudy 10 - - - -
30/02:56pm 14.1 W 17 24 1015.6 - 0.2 - Partly cloudy 10 - - - -
30/02:32pm 14.2 W 17 23 1015.3 - 0.0 - Partly cloudy 3 - - - -
30/02:30pm 14.3 W 17 23 1015.3 - 0.0 - Partly cloudy 4 - - - -
30/02:19pm 15.0 W 18 23 1015.2 - 0.0 - Partly cloudy 6 - - - -
30/02:00pm 17.8 W 18 24 1014.7 - 0.0 - Partly cloudy 10 - - - -
30/01:30pm 16.5 WSW 13 16 1014.8 - 0.0 - Partly cloudy 10 - - - -
30/01:00pm 16.0 W 13 19 1015.1 - 0.0 - Partly cloudy 10 - - - -
30/12:30pm 15.6 W 19 26 1015.4 - 0.0 - Partly cloudy 10 - - - -
30/12:19pm 16.2 W 18 23 1015.4 - 0.0 - Partly cloudy 10 - - - -
30/12:09pm 16.1 WNW 20 30 1015.4 - 0.0 - Partly cloudy 10 - - - -
30/12:00pm 16.6 W 17 24 1015.9 - 0.0 - Cloudy 10 - - - -
30/11:39am 15.7 WNW 15 23 1016.2 - 0.0 - Partly cloudy 10 - - - -
30/11:30am 14.8 WNW 19 33 1016.4 - 0.0 - Partly cloudy 8 - - - -
30/11:24am 13.8 WNW 22 33 1016.5 - 0.0 - Partly cloudy 6 - - - -
30/11:22am 13.9 W 21 33 1016.5 - 0.0 - Partly cloudy 8 - - - -
30/11:21am 14.1 W 21 30 1016.6 - 0.0 - Partly cloudy 9 - - - -
30/11:12am 14.5 W 15 27 1016.6 - 0.0 - Partly cloudy 10 - - - -
30/11:09am 14.5 W 15 20 1016.7 - 0.0 - Partly cloudy 7 - - - -
30/11:00am 14.7 W 17 23 1016.8 - 0.0 - Partly cloudy 10 - - - -
30/10:30am 15.2 WNW 20 27 1016.8 - 0.0 - Cloudy 10 - - - -
30/10:00am 15.5 WNW 16 27 1016.7 - 0.0 - Cloudy 10 - - - -
30/09:38am 14.9 WNW 16 26 1016.7 - 0.0 - Partly cloudy 10 - - - -
30/09:30am 15.1 WNW 14 21 1016.6 - 0.0 - Partly cloudy 10 - - - -
30/09:00am 14.9 WNW 13 18 1016.8 F 0.0 Fine Mostly cloudy 25 - - - -
30/08:30am 14.1 WNW 15 20 1016.6 - 0.0 - Mostly clear 10 - - - -
30/08:00am 14.1 WNW 15 18 1016.5 - 0.0 - Partly cloudy 10 - - - -
30/07:30am 13.7 WNW 14 18 1016.2 - 0.0 - Partly cloudy 10 - - - -
30/07:00am 13.3 WNW 11 15 1016.3 - 0.0 - Partly cloudy 10 - - - -
30/06:30am 12.5 WNW 11 14 1016.2 - 0.0 - Partly cloudy 10 - - - -
30/06:00am 13.0 WNW 11 15 1016.1 - 0.0 - Partly cloudy 10 - - - -
30/05:30am 13.4 WNW 12 18 1016.1 - 0.0 - Cloudy 10 - - - -
30/05:00am 13.7 WNW 15 21 1016.2 - 0.0 - Partly cloudy 10 - - - -
30/04:30am 13.7 WNW 15 20 1016.4 - 0.0 - Partly cloudy 10 - - - -
30/04:00am 13.8 WNW 16 21 1016.5 - 0.0 - Cloudy 10 - - - -
30/03:30am 13.5 WNW 13 18 1016.7 - 0.0 - Cloudy 10 - - - -
30/03:00am 13.4 WNW 13 18 1016.9 - 0.0 - Partly cloudy 10 - - - -
30/02:30am 13.5 NW 15 19 1016.7 - 0.0 - Partly cloudy 10 - - - -
30/02:00am 13.5 WNW 15 19 1017.3 - 0.0 - Partly cloudy 10 - - - -
30/01:30am 13.6 WNW 13 19 1017.4 - 0.0 - Partly cloudy 10 - - - -
30/01:00am 13.8 WNW 13 17 1017.4 - 0.0 - Partly cloudy 10 - - - -
30/12:30am 13.5 NW 13 17 1017.6 - 0.0 - Partly cloudy 10 - - - -
30/12:00am 14.0 WNW 14 18 1017.7 - 0.0 - Mostly cloudy 10 - - - -
 
Date/Time
WST
Temp

°C
Wind Pressure Rain
since 9am
mm
Weather Cloud Vis
km
Sea
Height
m
Swell
Dir
 
Speed
knots
Gust
knots
hPa Trend Height
m
Period
s
Dir
29/11:30pm 13.9 NW 13 18 1017.7 - 0.0 - Partly cloudy 10 - - - -
29/11:00pm 14.4 NW 13 19 1017.9 - 0.0 - Partly cloudy 10 - - - -
29/10:30pm 14.1 NW 12 17 1018.2 - 0.0 - Partly cloudy 10 - - - -
29/10:00pm 14.3 WNW 13 17 1018.2 - 0.0 - Partly cloudy 10 - - - -
29/09:30pm 14.6 NW 13 16 1018.3 - 0.0 - Partly cloudy 10 - - - -
29/09:00pm 15.1 WNW 12 17 1018.9 - 0.0 - Cloudy 10 - - - -
29/08:30pm 15.3 NW 12 18 1018.9 - 0.0 - Cloudy 10 - - - -
29/08:00pm 15.4 NW 12 17 1018.8 - 0.0 - Cloudy 10 - - - -
29/07:30pm 15.3 NW 11 14 1018.9 - 0.0 - Cloudy 10 - - - -
29/07:00pm 15.5 NW 11 16 1018.7 - 0.0 - Partly cloudy 10 - - - -
29/06:30pm 15.6 NW 9 12 1018.5 - 0.0 - Cloudy 10 - - - -
29/06:00pm 15.7 WNW 11 15 1018.5 - 0.0 - Mostly cloudy 10 - - - -
29/05:30pm 15.6 NW 10 13 1018.0 - 0.0 - Partly cloudy 10 - - - -
29/05:00pm 16.3 WNW 11 15 1018.1 - 0.0 - Cloudy 10 - - - -
29/04:30pm 16.7 NW 12 17 1018.2 - 0.0 - Cloudy 10 - - - -
29/04:00pm 17.3 WNW 13 20 1018.3 - 0.0 - Cloudy 10 - - - -
29/03:30pm 17.3 NW 12 15 1018.3 - 0.0 - Cloudy 10 - - - -
29/03:00pm 17.5 WNW 13 18 1018.4 - 0.0 - Partly cloudy 10 - - - -
29/02:30pm 17.8 WNW 15 21 1018.1 - 0.0 - Cloudy 10 - - - -
29/02:12pm 17.8 WNW 15 25 1017.9 - 0.0 - Partly cloudy 10 - - - -
29/02:00pm 18.5 WNW 14 20 1018.1 - 0.0 - Partly cloudy 10 - - - -
29/01:30pm 17.2 WNW 16 20 1018.4 - 0.0 - Partly cloudy 10 - - - -
29/01:00pm 17.8 WNW 15 21 1018.6 - 0.0 - Partly cloudy 10 - - - -
29/12:30pm 17.8 WNW 19 25 1018.8 - 0.0 - Partly cloudy 10 - - - -
29/12:20pm 17.9 WNW 19 29 1018.9 - 0.0 - Partly cloudy 10 - - - -
29/12:00pm 17.8 NW 17 24 1019.3 - 0.0 - Partly cloudy 10 - - - -
29/11:44am 17.9 WNW 18 28 1019.3 - 0.0 - Partly cloudy 10 - - - -
29/11:30am 17.5 WNW 20 26 1019.5 - 0.0 - Partly cloudy 10 - - - -
29/11:00am 17.1 WNW 18 24 1019.8 - 0.0 - Partly cloudy 10 - - - -
29/10:30am 17.1 WNW 16 22 1020.0 - 0.0 - Partly cloudy 10 - - - -
29/10:00am 16.2 WNW 15 23 1019.9 - 0.0 - Partly cloudy 10 - - - -
29/09:30am 15.6 WNW 12 16 1019.7 - 0.0 - Cloudy 10 - - - -
29/09:00am 15.5 WNW 13 18 1019.7 R 0.0 Fine Partly cloudy 30 - - - -
29/08:30am 14.0 NW 13 16 1019.5 - 0.0 - Partly cloudy 10 - - - -
29/08:00am 13.1 NW 10 13 1019.4 - 0.0 - Partly cloudy 10 - - - -
29/07:30am 12.5 WNW 11 15 1019.2 - 0.0 - Partly cloudy 10 - - - -
29/07:00am 12.5 WNW 10 12 1019.0 - 0.0 - Partly cloudy 10 - - - -
29/06:30am 12.1 WNW 10 13 1018.5 - 0.0 - Mostly clear 10 - - - -
29/06:00am 12.0 NW 11 14 1018.4 R 0.0 Fine Mostly clear 25 - - - -
29/05:30am 12.6 NW 13 16 1018.2 - 0.0 - Partly cloudy 10 - - - -
29/05:00am 12.7 WNW 11 14 1018.2 - 0.0 - Cloudy 10 - - - -
29/04:30am 12.9 WNW 12 16 1017.9 - 0.0 - Partly cloudy 10 - - - -
29/04:00am 12.6 WNW 12 17 1017.9 - 0.0 - Partly cloudy 10 - - - -
29/03:30am 12.4 WNW 13 17 1017.9 - 0.0 - - 10 - - - -
29/03:00am 12.7 WNW 13 19 1018.0 - 0.0 - - 10 - - - -
29/02:30am 12.7 WNW 14 19 1017.7 - 0.0 - - 10 - - - -
29/02:00am 12.5 NW 14 19 1017.9 - 0.0 - Partly cloudy 10 - - - -
29/01:30am 12.7 WNW 14 18 1017.9 - 0.0 - Partly cloudy 10 - - - -
29/01:00am 12.9 WNW 15 21 1017.9 - 0.0 - - 10 - - - -
29/12:30am 12.8 WNW 15 22 1017.7 - 0.0 - - 10 - - - -
29/12:00am 12.7 NW 15 20 1017.9 - 0.0 - - 10 - - - -
 
Date/Time
WST
Temp

°C
Wind Pressure Rain
since 9am
mm
Weather Cloud Vis
km
Sea
Height
m
Swell
Dir
 
Speed
knots
Gust
knots
hPa Trend Height
m
Period
s
Dir
28/11:30pm 12.7 WNW 14 18 1018.0 - 0.0 - - 10 - - - -
28/11:00pm 12.8 WNW 14 19 1018.2 - 0.0 - - 10 - - - -
28/10:30pm 12.7 NW 13 18 1018.1 - 0.0 - - 10 - - - -
28/10:00pm 12.9 NW 13 17 1018.1 - 0.0 - - 10 - - - -
28/09:30pm 13.2 WNW 12 16 1018.4 - 0.0 - - 10 - - - -
28/09:00pm 12.9 WNW 10 13 1018.9 - 0.0 - - 10 - - - -
28/08:30pm 13.6 WNW 11 16 1018.7 - 0.0 - Partly cloudy 10 - - - -
28/08:00pm 13.6 WNW 13 18 1018.6 - 0.0 - Partly cloudy 10 - - - -
28/07:30pm 13.9 WNW 11 15 1018.5 - 0.0 - Partly cloudy 10 - - - -
28/07:00pm 14.0 WNW 12 16 1018.2 - 0.0 - - 10 - - - -
28/06:30pm 14.3 WNW 13 16 1017.9 - 0.0 - Partly cloudy 10 - - - -
28/06:00pm 14.9 W 17 29 1017.9 - 0.0 - Mostly cloudy 10 - - - -
28/05:58pm 14.9 W 16 29 1017.7 - 0.0 - Cloudy 10 - - - -
28/05:30pm 14.8 W 14 21 1017.3 - 0.0 - Partly cloudy 10 - - - -

Other Formats:

Comma delimited format used in spreadsheet applications
http://www.bom.gov.au/fwo/IDW60701/IDW60701.94802.axf

JavaScript Object Notation format (JSON) in row-major order
http://www.bom.gov.au/fwo/IDW60701/IDW60701.94802.json